createdAt,value
2023-04-09T00:01:55.181Z,120
2023-04-09T00:04:26.074Z,124
2023-04-09T00:06:57.014Z,123
2023-04-09T00:09:26.287Z,126
2023-04-09T00:11:56.511Z,128
2023-04-09T00:14:27.354Z,131
2023-04-09T00:16:58.086Z,125
2023-04-09T00:19:28.714Z,124
2023-04-09T00:21:59.779Z,120
2023-04-09T00:24:33.126Z,115
2023-04-09T00:27:03.797Z,123
2023-04-09T00:29:34.583Z,120
2023-04-09T00:32:06.469Z,140
2023-04-09T00:34:37.311Z,130
2023-04-09T00:37:08.314Z,123
2023-04-09T00:39:37.263Z,131
2023-04-09T00:42:07.964Z,127
2023-04-09T00:44:39.541Z,118
2023-04-09T00:47:10.428Z,123
2023-04-09T00:49:40.930Z,117
2023-04-09T00:52:11.046Z,110
2023-04-09T00:54:41.936Z,115
2023-04-09T00:57:12.871Z,116
2023-04-09T00:59:43.868Z,106
2023-04-09T01:02:14.769Z,104
2023-04-09T01:04:45.612Z,129
2023-04-09T01:07:16.392Z,111
2023-04-09T01:09:48.536Z,100
2023-04-09T01:12:20.043Z,113
2023-04-09T01:14:53.629Z,103
2023-04-09T01:17:30.545Z,109
2023-04-09T01:20:01.494Z,125
2023-04-09T01:22:32.460Z,110
2023-04-09T01:25:03.454Z,103
2023-04-09T01:27:34.529Z,108
2023-04-09T01:30:05.460Z,115
2023-04-09T01:32:37.288Z,100
2023-04-09T01:35:08.406Z,115
2023-04-09T01:37:40.041Z,107
2023-04-09T01:40:10.897Z,112
2023-04-09T01:42:41.435Z,100
2023-04-09T01:45:12.412Z,111
2023-04-09T01:47:51.046Z,117
2023-04-09T01:50:22.279Z,103
2023-04-09T01:52:53.288Z,119
2023-04-09T01:55:27.235Z,114
2023-04-09T01:58:01.592Z,114
2023-04-09T02:00:41.542Z,103
2023-04-09T02:03:18.588Z,105
2023-04-09T02:05:49.490Z,114
2023-04-09T02:08:20.191Z,113
2023-04-09T02:10:53.563Z,105
2023-04-09T02:13:24.431Z,111
2023-04-09T02:15:57.353Z,104
2023-04-09T02:18:29.712Z,107
2023-04-09T02:21:00.716Z,123
2023-04-09T02:23:31.340Z,103
2023-04-09T02:26:02.311Z,104
2023-04-09T02:28:33.251Z,106
2023-04-09T02:31:04.126Z,114
2023-04-09T02:33:35.276Z,106
2023-04-09T02:36:06.411Z,108
2023-04-09T02:38:39.873Z,109
2023-04-09T02:41:10.754Z,107
2023-04-09T02:43:41.408Z,108
2023-04-09T02:46:12.347Z,103
2023-04-09T02:48:43.401Z,110
2023-04-09T02:51:14.556Z,105
2023-04-09T02:53:45.471Z,106
2023-04-09T02:56:16.223Z,116
2023-04-09T02:58:47.299Z,123
2023-04-09T03:01:17.982Z,116
2023-04-09T03:03:48.937Z,109
2023-04-09T03:06:19.812Z,109
2023-04-09T03:08:51.229Z,117
2023-04-09T03:11:21.902Z,105
2023-04-09T03:13:51.289Z,118
2023-04-09T03:16:21.863Z,101
2023-04-09T03:18:53.125Z,108
2023-04-09T03:21:24.000Z,103
2023-04-09T03:23:54.582Z,110
2023-04-09T03:26:29.499Z,106
2023-04-09T03:28:59.962Z,107
2023-04-09T03:31:30.735Z,106
2023-04-09T03:34:05.373Z,100
2023-04-09T03:36:36.051Z,97
2023-04-09T03:39:06.582Z,104
2023-04-09T03:41:37.482Z,110
2023-04-09T03:44:11.471Z,104
2023-04-09T03:46:44.396Z,107
2023-04-09T03:49:13.516Z,105
2023-04-09T03:51:43.645Z,104
2023-04-09T03:54:16.734Z,107
2023-04-09T03:56:47.729Z,101
2023-04-09T03:59:23.027Z,98
2023-04-09T04:01:53.460Z,104
2023-04-09T04:04:24.387Z,105
2023-04-09T04:06:56.097Z,107
2023-04-09T04:09:26.801Z,101
2023-04-09T04:11:56.987Z,103
2023-04-09T04:14:27.421Z,114
2023-04-09T04:16:57.887Z,99
2023-04-09T04:19:29.262Z,103
2023-04-09T04:22:00.280Z,102
2023-04-09T04:24:31.088Z,101
2023-04-09T04:27:01.823Z,103
2023-04-09T04:29:33.671Z,96
2023-04-09T04:32:04.874Z,92
2023-04-09T04:34:35.434Z,107
2023-04-09T04:37:06.038Z,101
2023-04-09T04:39:37.112Z,111
2023-04-09T04:42:07.728Z,98
2023-04-09T04:44:38.483Z,101
2023-04-09T04:47:09.481Z,104
2023-04-09T04:49:40.365Z,101
2023-04-09T04:52:13.256Z,104
2023-04-09T04:54:45.064Z,109
2023-04-09T04:57:16.254Z,100
2023-04-09T04:59:45.832Z,111
2023-04-09T05:02:20.069Z,101
2023-04-09T05:04:50.618Z,101
2023-04-09T05:07:26.329Z,100
2023-04-09T05:09:56.943Z,107
2023-04-09T05:12:29.043Z,101
2023-04-09T05:14:59.830Z,100
2023-04-09T05:17:30.651Z,100
2023-04-09T05:20:02.091Z,104
2023-04-09T05:22:32.736Z,103
2023-04-09T05:25:03.871Z,101
2023-04-09T05:27:35.117Z,95
2023-04-09T05:30:05.518Z,100
2023-04-09T05:32:36.192Z,111
2023-04-09T05:35:07.287Z,111
2023-04-09T05:37:37.661Z,101
2023-04-09T05:40:08.228Z,101
2023-04-09T05:42:38.613Z,98
2023-04-09T05:45:08.980Z,103
2023-04-09T05:47:39.716Z,105
2023-04-09T05:50:11.460Z,124
2023-04-09T05:52:43.368Z,121
2023-04-09T05:55:14.381Z,124
2023-04-09T05:57:45.403Z,123
2023-04-09T06:00:18.465Z,109
2023-04-09T06:02:48.925Z,117
2023-04-09T06:05:19.088Z,117
2023-04-09T06:07:52.810Z,107
2023-04-09T06:10:24.015Z,102
2023-04-09T06:12:57.959Z,109
2023-04-09T06:15:29.239Z,103
2023-04-09T06:18:00.968Z,109
2023-04-09T06:20:31.867Z,129
2023-04-09T06:23:03.670Z,113
2023-04-09T06:25:33.079Z,114
2023-04-09T06:28:05.078Z,100
2023-04-09T06:30:37.328Z,115
2023-04-09T06:33:14.143Z,110
2023-04-09T06:35:45.327Z,120
2023-04-09T06:38:16.120Z,128
2023-04-09T06:40:46.382Z,127
2023-04-09T06:43:18.282Z,119
2023-04-09T06:45:47.581Z,113
2023-04-09T06:48:18.367Z,107
2023-04-09T06:50:48.852Z,110
2023-04-09T06:53:22.147Z,103
2023-04-09T06:55:55.486Z,134
2023-04-09T06:58:24.691Z,125
2023-04-09T07:00:55.771Z,131
2023-04-09T07:03:27.844Z,148
2023-04-09T07:06:01.516Z,142
2023-04-09T07:08:32.340Z,104
2023-04-09T07:11:02.996Z,168
2023-04-09T07:13:36.479Z,125
2023-04-09T07:16:07.764Z,139
2023-04-09T07:18:38.275Z,145
2023-04-09T07:21:13.061Z,125
2023-04-09T07:23:48.036Z,129
2023-04-09T07:26:18.460Z,109
2023-04-09T07:28:49.417Z,113
2023-04-09T07:31:20.115Z,121
2023-04-09T07:33:51.325Z,109
2023-04-09T07:36:21.953Z,116
2023-04-09T07:38:52.760Z,138
2023-04-09T07:41:23.131Z,130
2023-04-09T07:43:53.813Z,122
2023-04-09T07:46:24.025Z,109
2023-04-09T07:48:55.655Z,114
2023-04-09T07:53:56.847Z,121
2023-04-09T07:56:32.351Z,106
2023-04-09T07:59:01.607Z,112
2023-04-09T08:01:32.474Z,100
2023-04-09T08:04:03.500Z,117
2023-04-09T08:06:34.049Z,101
2023-04-09T08:09:05.753Z,100
2023-04-09T08:11:37.649Z,106
2023-04-09T08:14:08.566Z,103
2023-04-09T08:16:39.274Z,101
2023-04-09T08:19:10.006Z,99
2023-04-09T08:21:40.605Z,101
2023-04-09T08:24:12.239Z,94
2023-04-09T08:26:42.820Z,97
2023-04-09T08:29:13.596Z,93
2023-04-09T08:31:44.627Z,102
2023-04-09T08:34:17.444Z,92
2023-04-09T08:36:52.712Z,92
2023-04-09T08:39:24.274Z,104
2023-04-09T08:41:56.310Z,114
2023-04-09T08:44:26.566Z,110
2023-04-09T08:46:59.152Z,106
2023-04-09T08:49:29.834Z,96
2023-04-09T08:52:02.112Z,98
2023-04-09T08:54:32.076Z,91
2023-04-09T08:57:02.795Z,91
2023-04-09T08:59:37.395Z,84
2023-04-09T09:02:08.832Z,108
2023-04-09T09:04:40.174Z,103
2023-04-09T09:07:12.533Z,96
2023-04-09T09:09:45.550Z,87
2023-04-09T09:12:17.571Z,83
2023-04-09T09:14:48.642Z,88
2023-04-09T09:17:23.251Z,80
2023-04-09T09:19:55.116Z,113
2023-04-09T09:22:25.786Z,85
2023-04-09T09:24:58.160Z,84
2023-04-09T09:27:29.185Z,83
2023-04-09T09:30:02.709Z,84
2023-04-09T09:32:36.863Z,75
2023-04-09T09:35:07.405Z,76
2023-04-09T09:37:37.829Z,80
2023-04-09T09:40:07.573Z,77
2023-04-09T09:42:38.203Z,75
2023-04-09T09:45:09.209Z,80
2023-04-09T09:47:38.146Z,80
2023-04-09T09:50:10.634Z,72
2023-04-09T09:52:41.293Z,75
2023-04-09T09:55:11.520Z,87
2023-04-09T09:57:42.033Z,78
2023-04-09T10:00:13.310Z,79
2023-04-09T10:02:45.665Z,84
2023-04-09T10:05:16.462Z,77
2023-04-09T10:07:48.256Z,73
2023-04-09T10:10:18.817Z,76
2023-04-09T10:12:53.229Z,79
2023-04-09T10:15:25.612Z,78
2023-04-09T10:17:57.041Z,74
2023-04-09T10:20:26.180Z,67
2023-04-09T10:22:56.464Z,71
2023-04-09T10:25:27.369Z,68
2023-04-09T10:27:56.626Z,76
2023-04-09T10:30:26.953Z,68
2023-04-09T10:33:01.809Z,71
2023-04-09T10:35:33.521Z,68
2023-04-09T10:38:04.331Z,72
2023-04-09T10:40:35.136Z,72
2023-04-09T10:43:05.660Z,69
2023-04-09T10:45:36.404Z,68
2023-04-09T10:48:07.986Z,68
2023-04-09T10:50:40.279Z,64
2023-04-09T10:53:10.633Z,67
2023-04-09T10:55:42.336Z,64
2023-04-09T10:58:14.268Z,70
2023-04-09T11:00:45.382Z,72
2023-04-09T11:03:20.045Z,67
2023-04-09T11:05:53.570Z,64
2023-04-09T11:08:28.669Z,62
2023-04-09T11:10:59.670Z,76
2023-04-09T11:13:32.357Z,68
2023-04-09T11:16:01.586Z,71
2023-04-09T11:18:32.704Z,72
2023-04-09T11:21:05.331Z,68
2023-04-09T11:23:35.796Z,69
2023-04-09T11:26:06.733Z,70
2023-04-09T11:28:38.803Z,72
2023-04-09T11:31:09.436Z,71
2023-04-09T11:33:40.746Z,64
2023-04-09T11:36:12.574Z,65
2023-04-09T11:38:44.079Z,61
2023-04-09T11:41:14.424Z,66
2023-04-09T11:43:44.928Z,63
2023-04-09T11:46:15.364Z,68
2023-04-09T11:48:46.059Z,71
2023-04-09T11:51:16.322Z,72
2023-04-09T11:53:46.786Z,81
2023-04-09T11:56:17.326Z,71
2023-04-09T11:58:48.001Z,68
2023-04-09T12:01:18.238Z,73
2023-04-09T12:03:48.856Z,73
2023-04-09T12:06:19.055Z,64
2023-04-09T12:08:49.366Z,69
2023-04-09T12:11:20.667Z,64
2023-04-09T12:13:51.108Z,73
2023-04-09T12:16:21.619Z,67
2023-04-09T12:18:53.319Z,64
2023-04-09T12:21:25.782Z,59
2023-04-09T12:23:56.283Z,60
2023-04-09T12:26:26.687Z,67
2023-04-09T12:28:57.356Z,63
2023-04-09T12:31:27.712Z,61
2023-04-09T12:34:03.358Z,60
2023-04-09T12:36:33.735Z,63
2023-04-09T12:39:04.374Z,61
2023-04-09T12:41:40.736Z,60
2023-04-09T12:44:10.942Z,66
2023-04-09T12:46:41.528Z,68
2023-04-09T12:49:12.083Z,68
2023-04-09T12:51:42.323Z,61
2023-04-09T12:54:13.036Z,65
2023-04-09T12:56:43.918Z,63
2023-04-09T12:59:14.646Z,65
2023-04-09T13:01:45.260Z,65
2023-04-09T13:04:17.231Z,63
2023-04-09T13:06:47.871Z,65
2023-04-09T13:09:20.678Z,72
2023-04-09T13:11:52.539Z,57
2023-04-09T13:14:22.681Z,65
2023-04-09T13:16:55.383Z,68
2023-04-09T13:19:26.984Z,64
2023-04-09T13:21:58.717Z,58
2023-04-09T13:24:29.388Z,71
2023-04-09T13:26:59.683Z,64
2023-04-09T13:29:32.315Z,65
2023-04-09T13:32:02.956Z,76
2023-04-09T13:34:35.863Z,91
2023-04-09T13:37:06.592Z,62
2023-04-09T13:39:37.358Z,56
2023-04-09T13:42:13.493Z,60
2023-04-09T13:44:38.916Z,67
2023-04-09T13:47:09.365Z,72
2023-04-09T13:49:40.585Z,61
2023-04-09T13:52:11.180Z,63
2023-04-09T13:54:41.740Z,68
2023-04-09T13:57:12.288Z,69
2023-04-09T13:59:43.119Z,70
2023-04-09T14:02:13.758Z,69
2023-04-09T14:04:44.186Z,64
2023-04-09T14:07:14.268Z,64
2023-04-09T14:09:45.040Z,67
2023-04-09T14:12:15.580Z,68
2023-04-09T14:14:45.941Z,67
2023-04-09T14:17:16.410Z,68
2023-04-09T14:19:48.313Z,71
2023-04-09T14:22:18.694Z,67
2023-04-09T14:24:51.007Z,65
2023-04-09T14:27:23.901Z,68
2023-04-09T14:29:54.928Z,73
2023-04-09T14:32:25.354Z,72
2023-04-09T14:34:55.527Z,65
2023-04-09T14:37:27.053Z,68
2023-04-09T14:39:57.307Z,65
2023-04-09T14:42:29.457Z,63
2023-04-09T14:45:00.237Z,53
2023-04-09T14:47:32.365Z,55
2023-04-09T14:50:03.568Z,56
2023-04-09T14:52:34.770Z,51
2023-04-09T14:55:10.257Z,57
2023-04-09T14:57:40.967Z,60
2023-04-09T15:00:12.094Z,56
2023-04-09T15:02:42.887Z,58
2023-04-09T15:05:12.122Z,68
2023-04-09T15:07:43.919Z,64
2023-04-09T15:10:29.223Z,58
2023-04-09T15:13:04.549Z,58
2023-04-09T15:15:35.534Z,58
2023-04-09T15:18:08.496Z,60
2023-04-09T15:20:39.808Z,60
2023-04-09T15:23:11.977Z,65
2023-04-09T15:25:46.944Z,57
2023-04-09T15:28:19.898Z,59
2023-04-09T15:30:50.274Z,62
2023-04-09T15:33:21.225Z,69
2023-04-09T15:35:51.661Z,70
2023-04-09T15:38:22.098Z,71
2023-04-09T15:40:52.485Z,63
2023-04-09T15:43:22.893Z,69
2023-04-09T15:45:53.298Z,76
2023-04-09T15:48:25.529Z,68
2023-04-09T15:50:56.047Z,72
2023-04-09T15:53:26.164Z,76
2023-04-09T15:55:57.368Z,75
2023-04-09T15:58:27.654Z,63
2023-04-09T16:00:58.959Z,70
2023-04-09T16:03:32.589Z,77
2023-04-09T16:06:03.193Z,80
2023-04-09T16:08:33.710Z,68
2023-04-09T16:11:05.462Z,83
2023-04-09T16:13:36.076Z,72
2023-04-09T16:16:09.607Z,65
2023-04-09T16:18:40.232Z,75
2023-04-09T16:21:10.755Z,73
2023-04-09T16:23:42.380Z,76
2023-04-09T16:26:14.887Z,74
2023-04-09T16:28:48.308Z,75
2023-04-09T16:31:19.073Z,72
2023-04-09T16:33:49.467Z,71
2023-04-09T16:36:22.255Z,73
2023-04-09T16:38:53.955Z,68
2023-04-09T16:41:25.513Z,72
2023-04-09T16:43:55.653Z,75
2023-04-09T16:46:28.355Z,71
2023-04-09T16:49:04.103Z,74
2023-04-09T16:51:35.086Z,72
2023-04-09T16:54:09.534Z,71
2023-04-09T16:56:41.689Z,64
2023-04-09T16:59:15.619Z,67
2023-04-09T17:01:52.490Z,69
2023-04-09T17:04:26.546Z,71
2023-04-09T17:06:58.237Z,70
2023-04-09T17:09:29.061Z,71
2023-04-09T17:11:58.908Z,72
2023-04-09T17:14:35.606Z,67
2023-04-09T17:17:06.567Z,66
2023-04-09T17:19:37.694Z,66
2023-04-09T17:22:08.285Z,72
2023-04-09T17:24:40.113Z,69
2023-04-09T17:27:11.290Z,70
2023-04-09T17:29:44.421Z,73
2023-04-09T17:32:14.871Z,68
2023-04-09T17:34:45.385Z,70
2023-04-09T17:39:53.542Z,68
2023-04-09T17:42:24.490Z,71
2023-04-09T17:44:56.056Z,74
2023-04-09T17:47:31.942Z,75
2023-04-09T17:50:02.547Z,72
2023-04-09T17:52:36.645Z,70
2023-04-09T17:55:14.519Z,75
2023-04-09T17:57:44.998Z,72
2023-04-09T18:00:15.107Z,75
2023-04-09T18:02:47.005Z,76
2023-04-09T18:05:15.761Z,72
2023-04-09T18:10:26.275Z,76
2023-04-09T18:12:55.020Z,75
2023-04-09T18:15:25.558Z,76
2023-04-09T18:17:56.894Z,80
2023-04-09T18:20:27.355Z,78
2023-04-09T18:23:00.551Z,76
2023-04-09T18:25:31.798Z,85
2023-04-09T18:28:02.295Z,80
2023-04-09T18:30:32.767Z,84
2023-04-09T18:33:04.639Z,80
2023-04-09T18:35:35.985Z,77
2023-04-09T18:38:08.729Z,78
2023-04-09T18:40:49.890Z,80
2023-04-09T18:43:21.412Z,77
2023-04-09T18:45:51.858Z,78
2023-04-09T18:48:22.300Z,85
2023-04-09T18:53:30.025Z,79
2023-04-09T18:56:07.848Z,76
2023-04-09T18:58:39.423Z,78
2023-04-09T19:01:12.775Z,75
2023-04-09T19:03:43.215Z,76
2023-04-09T19:06:15.928Z,81
2023-04-09T19:08:46.531Z,74
2023-04-09T19:11:18.871Z,69
2023-04-09T19:13:49.883Z,79
2023-04-09T19:16:20.418Z,77
2023-04-09T19:18:51.373Z,80
2023-04-09T19:21:21.830Z,76
2023-04-09T19:23:55.964Z,76
2023-04-09T19:26:26.979Z,76
2023-04-09T19:29:00.302Z,75
2023-04-09T19:31:38.150Z,71
2023-04-09T19:34:10.991Z,75
2023-04-09T19:36:43.563Z,72
2023-04-09T19:39:14.635Z,79
2023-04-09T19:41:48.887Z,76
2023-04-09T19:44:23.063Z,74
2023-04-09T19:46:53.738Z,78
2023-04-09T19:49:24.076Z,76
2023-04-09T19:51:55.749Z,72
2023-04-09T19:54:35.528Z,69
2023-04-09T19:57:06.591Z,75
2023-04-09T19:59:35.334Z,75
2023-04-09T20:02:06.091Z,80
2023-04-09T20:04:37.855Z,78
2023-04-09T20:07:07.793Z,77
2023-04-09T20:09:38.227Z,73
2023-04-09T20:12:10.660Z,83
2023-04-09T20:14:44.332Z,84
2023-04-09T20:17:14.708Z,81
2023-04-09T20:19:53.459Z,78
2023-04-09T20:22:23.778Z,82
2023-04-09T20:24:54.248Z,80
2023-04-09T20:27:24.721Z,89
2023-04-09T20:29:57.177Z,75
2023-04-09T20:32:31.379Z,80
2023-04-09T20:35:02.024Z,83
2023-04-09T20:37:34.549Z,112
2023-04-09T20:40:05.036Z,116
2023-04-09T20:42:35.622Z,128
2023-04-09T20:45:08.413Z,112
2023-04-09T20:47:38.824Z,113
2023-04-09T20:50:13.489Z,101
2023-04-09T20:52:44.538Z,99
2023-04-09T20:55:17.075Z,118
2023-04-09T20:57:47.916Z,106
2023-04-09T21:00:19.706Z,116
2023-04-09T21:02:48.530Z,111
2023-04-09T21:05:23.775Z,104
2023-04-09T21:07:54.732Z,97
2023-04-09T21:10:31.005Z,117
2023-04-09T21:13:08.747Z,108
2023-04-09T21:15:47.048Z,132
2023-04-09T21:18:17.302Z,130
2023-04-09T21:20:48.613Z,145
2023-04-09T21:23:20.788Z,141
2023-04-09T21:25:51.302Z,143
2023-04-09T21:28:24.995Z,146
2023-04-09T21:30:57.297Z,152
2023-04-09T21:33:30.106Z,149
2023-04-09T21:35:59.030Z,135
2023-04-09T21:38:41.883Z,140
2023-04-09T21:41:14.351Z,150
2023-04-09T21:43:45.138Z,151
2023-04-09T21:46:19.587Z,138
2023-04-09T21:48:56.052Z,143
2023-04-09T21:51:33.452Z,137
2023-04-09T21:54:04.347Z,150
2023-04-09T21:56:35.661Z,147
2023-04-09T21:59:09.623Z,147
2023-04-09T22:01:40.721Z,136
2023-04-09T22:04:13.660Z,132
2023-04-09T22:06:48.086Z,152
2023-04-09T22:09:17.048Z,157
2023-04-09T22:14:25.266Z,144
2023-04-09T22:16:55.840Z,147
2023-04-09T22:19:27.186Z,149
2023-04-09T22:21:57.929Z,146
2023-04-09T22:24:28.337Z,143
2023-04-09T22:26:58.900Z,156
2023-04-09T22:29:31.152Z,138
2023-04-09T22:32:02.297Z,134
2023-04-09T22:34:31.860Z,132
2023-04-09T22:37:02.434Z,124
2023-04-09T22:39:32.726Z,133
2023-04-09T22:42:02.228Z,136
2023-04-09T22:44:33.162Z,134
2023-04-09T22:47:03.650Z,133
2023-04-09T22:49:32.586Z,132
2023-04-09T22:52:02.161Z,136
2023-04-09T22:54:32.943Z,128
2023-04-09T22:57:03.648Z,127
2023-04-09T23:02:06.748Z,136
2023-04-09T23:04:37.473Z,131
2023-04-09T23:07:07.810Z,126
2023-04-09T23:09:38.584Z,115
2023-04-09T23:12:14.753Z,124
2023-04-09T23:14:47.019Z,136
2023-04-09T23:17:16.474Z,142
2023-04-09T23:19:50.403Z,132
2023-04-09T23:22:21.085Z,131
2023-04-09T23:24:51.671Z,137
2023-04-09T23:27:22.161Z,122
2023-04-09T23:29:55.102Z,132
2023-04-09T23:32:31.297Z,132
2023-04-09T23:35:02.436Z,116
2023-04-09T23:37:35.236Z,93
2023-04-09T23:40:05.982Z,96
2023-04-09T23:42:38.883Z,108
2023-04-09T23:45:09.781Z,116
2023-04-09T23:47:40.298Z,122
2023-04-09T23:50:12.962Z,116
2023-04-09T23:52:43.402Z,111
2023-04-09T23:55:14.165Z,105
2023-04-09T23:57:45.065Z,110
